createdAt,value
2023-03-16T00:00:19.751Z,2.60
2023-03-16T00:03:21.365Z,2.65
2023-03-16T00:06:25.532Z,2.60
2023-03-16T00:09:31.174Z,3.20
2023-03-16T00:12:34.846Z,3.10
2023-03-16T00:15:36.423Z,3.35
2023-03-16T00:18:40.908Z,3.20
2023-03-16T00:21:42.511Z,2.60
2023-03-16T00:24:44.053Z,2.35
2023-03-16T00:27:45.609Z,2.50
2023-03-16T00:30:47.436Z,2.20
2023-03-16T00:33:50.941Z,2.05
2023-03-16T00:36:52.458Z,2.03
2023-03-16T00:39:58.197Z,2.58
2023-03-16T00:42:59.867Z,3.80
2023-03-16T00:46:06.817Z,4.05
2023-03-16T00:49:09.477Z,3.95
2023-03-16T00:52:14.640Z,3.35
2023-03-16T00:55:16.245Z,2.90
2023-03-16T00:58:17.741Z,2.75
2023-03-16T01:01:20.812Z,2.78
2023-03-16T01:04:23.162Z,1.90
2023-03-16T01:07:24.821Z,2.53
2023-03-16T01:10:26.520Z,2.40
2023-03-16T01:13:28.536Z,2.25
2023-03-16T01:16:30.263Z,2.42
2023-03-16T01:19:35.702Z,2.20
2023-03-16T01:22:38.801Z,1.90
2023-03-16T01:25:41.266Z,2.25
2023-03-16T01:28:44.420Z,2.70
2023-03-16T01:31:46.015Z,2.45
2023-03-16T01:34:47.534Z,2.65
2023-03-16T01:37:50.283Z,2.17
2023-03-16T01:40:56.790Z,2.40
2023-03-16T01:43:59.697Z,2.42
2023-03-16T01:47:02.831Z,2.13
2023-03-16T01:50:06.036Z,2.67
2023-03-16T01:53:11.633Z,2.70
2023-03-16T01:56:18.556Z,2.50
2023-03-16T01:59:23.253Z,2.85
2023-03-16T02:02:30.816Z,2.75
2023-03-16T02:05:38.284Z,2.63
2023-03-16T02:08:42.846Z,2.95
2023-03-16T02:11:44.481Z,3.28
2023-03-16T02:14:49.585Z,2.78
2023-03-16T02:17:51.688Z,2.85
2023-03-16T02:21:19.526Z,3.37
2023-03-16T02:24:21.801Z,3.13
2023-03-16T02:28:08.596Z,3.00
2023-03-16T02:31:19.060Z,3.20
2023-03-16T02:34:21.483Z,2.83
2023-03-16T02:37:23.004Z,3.15
2023-03-16T02:40:32.891Z,2.63
2023-03-16T02:43:41.742Z,2.47
2023-03-16T02:47:03.166Z,3.45
2023-03-16T02:50:06.784Z,3.42
2023-03-16T02:53:08.514Z,3.25
2023-03-16T02:56:10.998Z,3.00
2023-03-16T02:59:12.685Z,3.55
2023-03-16T03:02:14.488Z,2.85
2023-03-16T03:05:16.000Z,3.25
2023-03-16T03:08:20.312Z,2.53
2023-03-16T03:11:21.958Z,3.40
2023-03-16T03:14:25.319Z,2.78
2023-03-16T03:17:30.262Z,2.42
2023-03-16T03:20:33.326Z,3.05
2023-03-16T03:23:37.656Z,2.92
2023-03-16T03:26:41.968Z,3.65
2023-03-16T03:29:50.690Z,4.30
2023-03-16T03:32:52.658Z,3.83
2023-03-16T03:35:58.027Z,3.53
2023-03-16T03:39:05.414Z,2.90
2023-03-16T03:42:08.707Z,2.67
2023-03-16T03:45:14.252Z,3.33
2023-03-16T03:48:15.788Z,2.90
2023-03-16T03:51:17.352Z,3.15
2023-03-16T03:54:37.999Z,3.00
2023-03-16T03:57:43.712Z,3.30
2023-03-16T04:00:45.293Z,3.20
2023-03-16T04:03:46.900Z,3.53
2023-03-16T04:06:51.525Z,2.92
2023-03-16T04:09:53.221Z,2.97
2023-03-16T04:13:10.025Z,2.88
2023-03-16T04:16:16.347Z,2.75
2023-03-16T04:19:21.292Z,2.75
2023-03-16T04:22:23.216Z,2.55
2023-03-16T04:25:27.299Z,3.15
2023-03-16T04:28:29.209Z,3.00
2023-03-16T04:31:31.942Z,2.90
2023-03-16T04:34:34.431Z,2.80
2023-03-16T04:37:39.068Z,2.60
2023-03-16T04:40:41.066Z,2.67
2023-03-16T04:43:50.672Z,2.28
2023-03-16T04:46:55.433Z,3.45
2023-03-16T04:49:59.000Z,2.72
2023-03-16T04:53:00.597Z,3.08
2023-03-16T04:56:04.257Z,2.60
2023-03-16T04:59:06.777Z,2.60
2023-03-16T05:02:20.108Z,3.17
2023-03-16T05:05:22.801Z,4.45
2023-03-16T05:08:24.583Z,3.40
2023-03-16T05:11:28.318Z,2.83
2023-03-16T05:14:35.993Z,3.17
2023-03-16T05:18:01.593Z,3.10
2023-03-16T05:21:04.155Z,3.63
2023-03-16T05:24:17.215Z,4.00
2023-03-16T05:27:18.836Z,4.95
2023-03-16T05:30:20.922Z,4.93
2023-03-16T05:33:25.580Z,4.40
2023-03-16T05:36:35.947Z,4.18
2023-03-16T05:39:43.220Z,4.05
2023-03-16T05:42:46.981Z,4.72
2023-03-16T05:45:48.749Z,3.85
2023-03-16T05:48:52.432Z,4.03
2023-03-16T05:51:55.731Z,3.73
2023-03-16T05:54:57.559Z,3.95
2023-03-16T05:57:59.498Z,3.92
2023-03-16T06:01:01.844Z,3.80
2023-03-16T06:07:10.943Z,4.57
2023-03-16T06:10:13.790Z,4.82
2023-03-16T06:13:15.810Z,4.30
2023-03-16T06:16:17.934Z,4.65
2023-03-16T06:19:20.162Z,4.35
2023-03-16T06:22:26.290Z,4.38
2023-03-16T06:25:28.347Z,4.80
2023-03-16T06:28:30.532Z,3.92
2023-03-16T06:31:34.085Z,4.30
2023-03-16T06:34:38.225Z,4.53
2023-03-16T06:37:41.190Z,4.03
2023-03-16T06:40:57.491Z,4.07
2023-03-16T06:43:59.329Z,4.47
2023-03-16T06:47:02.051Z,3.50
2023-03-16T06:50:04.493Z,3.50
2023-03-16T06:53:06.299Z,3.47
2023-03-16T06:56:09.621Z,2.70
2023-03-16T06:59:15.288Z,3.47
2023-03-16T07:02:17.129Z,3.70
2023-03-16T07:05:18.967Z,3.85
2023-03-16T07:08:21.807Z,3.55
2023-03-16T07:11:23.536Z,3.78
2023-03-16T07:14:26.297Z,3.50
2023-03-16T07:17:30.100Z,3.60
2023-03-16T07:20:33.010Z,3.63
2023-03-16T07:23:37.471Z,3.10
2023-03-16T07:26:41.321Z,3.43
2023-03-16T07:29:43.967Z,3.53
2023-03-16T07:32:45.533Z,2.60
2023-03-16T07:35:47.208Z,3.00
2023-03-16T07:38:48.953Z,2.80
2023-03-16T07:41:51.300Z,2.75
2023-03-16T07:45:05.545Z,2.67
2023-03-16T07:48:07.279Z,3.20
2023-03-16T07:51:16.934Z,3.00
2023-03-16T07:54:22.418Z,2.58
2023-03-16T07:57:24.178Z,1.80
2023-03-16T08:00:26.064Z,2.13
2023-03-16T08:03:29.485Z,1.60
2023-03-16T08:06:31.311Z,1.95
2023-03-16T08:09:36.117Z,2.90
2023-03-16T08:12:40.454Z,2.63
2023-03-16T08:15:46.300Z,2.28
2023-03-16T08:18:59.710Z,1.65
2023-03-16T08:22:02.270Z,1.73
2023-03-16T08:25:12.337Z,1.55
2023-03-16T08:28:25.626Z,5.72
2023-03-16T08:31:30.334Z,2.33
2023-03-16T08:34:40.817Z,2.10
2023-03-16T08:37:43.975Z,1.65
2023-03-16T08:40:48.920Z,1.85
2023-03-16T08:43:53.136Z,1.42
2023-03-16T08:46:55.364Z,1.50
2023-03-16T08:49:57.584Z,2.15
2023-03-16T08:52:59.435Z,1.70
2023-03-16T08:56:06.311Z,1.17
2023-03-16T08:59:16.814Z,0.95
2023-03-16T09:02:25.650Z,1.63
2023-03-16T09:05:27.612Z,1.25
2023-03-16T09:08:30.258Z,1.70
2023-03-16T09:11:34.133Z,1.25
2023-03-16T09:14:38.450Z,3.00
2023-03-16T09:17:41.802Z,3.20
2023-03-16T09:20:43.823Z,3.17
2023-03-16T09:23:46.126Z,2.85
2023-03-16T09:26:47.731Z,1.90
2023-03-16T09:29:50.905Z,1.60
2023-03-16T09:32:52.646Z,1.17
2023-03-16T09:35:56.136Z,1.42
2023-03-16T09:38:57.752Z,2.17
2023-03-16T09:42:07.681Z,1.33
2023-03-16T09:45:19.054Z,1.17
2023-03-16T09:48:21.615Z,3.90
2023-03-16T09:51:43.658Z,2.22
2023-03-16T09:55:17.141Z,2.58
2023-03-16T09:58:21.527Z,2.13
2023-03-16T10:01:43.257Z,1.20
2023-03-16T10:05:09.724Z,1.30
2023-03-16T10:08:24.960Z,1.30
2023-03-16T10:11:33.522Z,1.40
2023-03-16T10:14:48.117Z,3.97
2023-03-16T10:18:11.828Z,4.53
2023-03-16T10:21:18.358Z,5.25
2023-03-16T10:24:39.760Z,4.30
2023-03-16T10:27:44.805Z,4.50
2023-03-16T10:30:50.122Z,4.88
2023-03-16T10:33:58.461Z,5.57
2023-03-16T10:37:02.997Z,4.95
2023-03-16T10:40:10.281Z,4.78
2023-03-16T10:43:13.910Z,5.18
2023-03-16T10:46:15.741Z,4.93
2023-03-16T10:49:27.824Z,6.25
2023-03-16T10:52:40.888Z,4.53
2023-03-16T10:55:45.748Z,4.95
2023-03-16T10:58:47.378Z,4.70
2023-03-16T11:01:52.320Z,5.18
2023-03-16T11:04:54.803Z,4.20
2023-03-16T11:08:12.165Z,4.10
2023-03-16T11:11:26.081Z,4.95
2023-03-16T11:14:28.762Z,4.47
2023-03-16T11:17:43.278Z,4.22
2023-03-16T11:20:45.708Z,4.05
2023-03-16T11:23:56.269Z,3.78
2023-03-16T11:27:01.709Z,4.60
2023-03-16T11:30:24.774Z,3.45
2023-03-16T11:33:27.542Z,3.72
2023-03-16T11:36:40.223Z,3.47
2023-03-16T11:40:14.252Z,3.70
2023-03-16T11:43:55.286Z,4.10
2023-03-16T11:47:18.257Z,3.38
2023-03-16T11:50:20.060Z,3.28
2023-03-16T11:53:27.444Z,3.78
2023-03-16T11:56:35.733Z,3.67
2023-03-16T12:00:03.295Z,3.40
2023-03-16T12:03:53.785Z,4.03
2023-03-16T12:07:04.970Z,3.50
2023-03-16T12:10:14.198Z,3.95
2023-03-16T12:13:22.900Z,3.70
2023-03-16T12:16:53.731Z,4.05
2023-03-16T12:20:05.677Z,3.65
2023-03-16T12:23:14.906Z,3.22
2023-03-16T12:26:19.207Z,3.45
2023-03-16T12:29:32.604Z,3.35
2023-03-16T12:32:46.803Z,3.00
2023-03-16T12:36:11.112Z,3.75
2023-03-16T12:39:23.094Z,3.38
2023-03-16T12:42:40.552Z,2.92
2023-03-16T12:45:48.234Z,2.90
2023-03-16T12:48:56.388Z,3.53
2023-03-16T12:52:07.041Z,3.30
2023-03-16T12:55:20.032Z,3.38
2023-03-16T12:58:24.819Z,3.90
2023-03-16T13:01:29.402Z,3.33
2023-03-16T13:04:33.799Z,3.35
2023-03-16T13:07:37.953Z,3.05
2023-03-16T13:14:00.657Z,3.03
2023-03-16T13:17:27.249Z,3.10
2023-03-16T13:20:50.879Z,2.90
2023-03-16T13:23:59.839Z,3.00
2023-03-16T13:27:15.941Z,3.20
2023-03-16T13:30:23.601Z,2.90
2023-03-16T13:33:28.262Z,3.72
2023-03-16T13:36:31.977Z,3.17
2023-03-16T13:39:34.012Z,3.55
2023-03-16T13:42:36.782Z,2.90
2023-03-16T13:45:39.245Z,2.95
2023-03-16T13:48:41.820Z,2.60
2023-03-16T13:51:45.179Z,2.65
2023-03-16T13:54:47.310Z,2.90
2023-03-16T13:57:49.414Z,2.85
2023-03-16T14:00:55.836Z,2.83
2023-03-16T14:04:08.815Z,3.45
2023-03-16T14:07:19.722Z,2.90
2023-03-16T14:10:24.880Z,2.60
2023-03-16T14:13:29.728Z,2.50
2023-03-16T14:16:32.173Z,2.80
2023-03-16T14:19:43.814Z,2.60
2023-03-16T14:22:46.288Z,2.38
2023-03-16T14:25:49.297Z,2.67
2023-03-16T14:29:22.048Z,2.58
2023-03-16T14:32:30.364Z,2.63
2023-03-16T14:35:43.898Z,2.53
2023-03-16T14:38:54.329Z,2.40
2023-03-16T14:41:55.951Z,2.80
2023-03-16T14:45:07.556Z,2.30
2023-03-16T14:48:21.273Z,2.28
2023-03-16T14:51:22.843Z,2.30
2023-03-16T14:54:26.105Z,2.20
2023-03-16T14:57:27.710Z,1.98
2023-03-16T15:00:32.977Z,2.20
2023-03-16T15:03:37.949Z,2.08
2023-03-16T15:06:39.409Z,2.45
2023-03-16T15:09:46.004Z,2.50
2023-03-16T15:12:54.139Z,2.15
2023-03-16T15:15:55.760Z,2.28
2023-03-16T15:18:57.844Z,2.50
2023-03-16T15:22:01.713Z,2.92
2023-03-16T15:25:20.173Z,3.00
2023-03-16T15:28:23.767Z,3.08
2023-03-16T15:31:25.474Z,2.78
2023-03-16T15:34:27.504Z,2.97
2023-03-16T15:37:30.222Z,3.13
2023-03-16T15:40:32.658Z,2.97
2023-03-16T15:43:34.125Z,2.95
2023-03-16T15:46:36.372Z,2.90
2023-03-16T15:49:47.103Z,3.00
2023-03-16T15:52:58.037Z,3.05
2023-03-16T15:56:03.478Z,3.38
2023-03-16T15:59:06.567Z,3.70
2023-03-16T16:02:28.380Z,3.35
2023-03-16T16:05:30.907Z,3.67
2023-03-16T16:08:32.453Z,3.45
2023-03-16T16:11:34.038Z,3.60
2023-03-16T16:14:35.651Z,3.90
2023-03-16T16:17:53.797Z,3.78
2023-03-16T16:21:00.894Z,3.83
2023-03-16T16:24:03.148Z,4.05
2023-03-16T16:27:05.420Z,3.45
2023-03-16T16:30:28.571Z,3.40
2023-03-16T16:33:35.667Z,3.50
2023-03-16T16:36:37.326Z,3.30
2023-03-16T16:39:39.301Z,3.75
2023-03-16T16:42:41.470Z,4.00
2023-03-16T16:45:43.030Z,3.53
2023-03-16T16:48:49.973Z,3.95
2023-03-16T16:51:52.692Z,4.20
2023-03-16T16:54:54.191Z,6.20
2023-03-16T16:57:55.963Z,4.90
2023-03-16T17:00:58.960Z,5.10
2023-03-16T17:04:02.283Z,4.80
2023-03-16T17:07:06.496Z,4.63
2023-03-16T17:10:09.762Z,9.57
2023-03-16T17:13:26.565Z,20.53
2023-03-16T17:16:32.119Z,7.68
2023-03-16T17:19:33.761Z,4.75
2023-03-16T17:22:35.290Z,5.00
2023-03-16T17:25:36.969Z,5.40
2023-03-16T17:28:43.675Z,4.78
2023-03-16T17:31:45.255Z,4.45
2023-03-16T17:34:46.942Z,4.85
2023-03-16T17:37:48.771Z,4.50
2023-03-16T17:40:52.380Z,4.15
2023-03-16T17:43:57.204Z,6.18
2023-03-16T17:46:58.758Z,8.95
2023-03-16T17:50:01.054Z,9.15
2023-03-16T17:53:03.695Z,8.25
2023-03-16T17:56:19.940Z,7.38
2023-03-16T17:59:22.030Z,7.38
2023-03-16T18:02:38.629Z,6.75
2023-03-16T18:05:41.245Z,5.07
2023-03-16T18:08:42.761Z,4.55
2023-03-16T18:11:51.348Z,5.00
2023-03-16T18:14:58.414Z,4.97
2023-03-16T18:18:00.732Z,5.38
2023-03-16T18:21:02.829Z,5.03
2023-03-16T18:24:14.477Z,4.90
2023-03-16T18:27:16.210Z,5.38
2023-03-16T18:30:18.066Z,5.32
2023-03-16T18:33:33.660Z,5.60
2023-03-16T18:36:37.683Z,5.03
2023-03-16T18:39:39.526Z,5.50
2023-03-16T18:42:41.400Z,4.70
2023-03-16T18:45:45.917Z,4.82
2023-03-16T18:48:47.695Z,4.80
2023-03-16T18:51:51.988Z,4.85
2023-03-16T18:54:53.502Z,4.72
2023-03-16T18:57:57.436Z,3.80
2023-03-16T19:01:01.009Z,4.10
2023-03-16T19:04:02.920Z,4.10
2023-03-16T19:07:06.457Z,4.15
2023-03-16T19:10:16.187Z,4.38
2023-03-16T19:13:21.138Z,5.05
2023-03-16T19:16:23.234Z,5.40
2023-03-16T19:19:25.546Z,8.10
2023-03-16T19:22:27.356Z,6.43
2023-03-16T19:25:32.109Z,5.18
2023-03-16T19:28:37.125Z,4.80
2023-03-16T19:31:38.738Z,3.97
2023-03-16T19:34:40.244Z,4.20
2023-03-16T19:37:42.053Z,3.92
2023-03-16T19:40:44.036Z,3.80
2023-03-16T19:43:45.677Z,3.72
2023-03-16T19:46:48.873Z,2.90
2023-03-16T19:49:50.500Z,3.47
2023-03-16T19:52:52.573Z,3.38
2023-03-16T19:55:54.721Z,3.22
2023-03-16T19:58:56.396Z,3.63
2023-03-16T20:01:58.198Z,3.70
2023-03-16T20:04:59.705Z,3.85
2023-03-16T20:08:02.508Z,3.10
2023-03-16T20:11:14.003Z,2.80
2023-03-16T20:14:39.783Z,3.10
2023-03-16T20:17:43.263Z,2.90
2023-03-16T20:20:46.018Z,4.25
2023-03-16T20:23:48.056Z,3.25
2023-03-16T20:26:51.526Z,3.65
2023-03-16T20:29:53.151Z,3.25
2023-03-16T20:32:54.973Z,2.78
2023-03-16T20:35:57.051Z,3.60
2023-03-16T20:38:58.544Z,3.60
2023-03-16T20:42:00.308Z,4.68
2023-03-16T20:45:02.112Z,4.80
2023-03-16T20:48:13.659Z,3.55
2023-03-16T20:51:16.381Z,3.25
2023-03-16T20:54:17.906Z,3.00
2023-03-16T20:57:22.705Z,3.25
2023-03-16T21:00:36.415Z,3.20
2023-03-16T21:03:39.351Z,3.30
2023-03-16T21:06:41.341Z,3.40
2023-03-16T21:09:49.911Z,3.90
2023-03-16T21:12:55.351Z,3.55
2023-03-16T21:15:59.712Z,3.90
2023-03-16T21:19:01.272Z,3.65
2023-03-16T21:22:02.802Z,3.30
2023-03-16T21:25:04.689Z,3.10
2023-03-16T21:28:06.243Z,4.68
2023-03-16T21:31:08.374Z,5.55
2023-03-16T21:34:30.565Z,4.05
2023-03-16T21:37:32.074Z,2.58
2023-03-16T21:40:33.530Z,3.40
2023-03-16T21:43:35.497Z,3.38
2023-03-16T21:46:37.031Z,2.97
2023-03-16T21:49:39.464Z,3.10
2023-03-16T21:52:43.242Z,3.17
2023-03-16T21:55:44.821Z,3.78
2023-03-16T21:58:47.305Z,3.05
2023-03-16T22:02:01.271Z,3.17
2023-03-16T22:08:22.983Z,5.03
2023-03-16T22:11:30.686Z,4.35
2023-03-16T22:14:32.482Z,4.15
2023-03-16T22:17:34.570Z,4.00
2023-03-16T22:20:36.535Z,3.65
2023-03-16T22:23:38.125Z,3.15
2023-03-16T22:26:39.825Z,3.78
2023-03-16T22:29:44.407Z,2.67
2023-03-16T22:33:03.396Z,3.67
2023-03-16T22:36:14.881Z,3.15
2023-03-16T22:39:16.624Z,3.10
2023-03-16T22:42:27.226Z,2.88
2023-03-16T22:45:31.352Z,2.63
2023-03-16T22:48:33.069Z,2.80
2023-03-16T22:51:37.001Z,2.72
2023-03-16T22:54:38.668Z,2.70
2023-03-16T22:57:40.351Z,2.10
2023-03-16T23:00:42.807Z,3.00
2023-03-16T23:03:49.637Z,2.85
2023-03-16T23:06:54.085Z,2.80
2023-03-16T23:09:55.961Z,2.80
2023-03-16T23:12:59.550Z,2.63
2023-03-16T23:16:01.298Z,2.05
2023-03-16T23:19:07.639Z,2.63
2023-03-16T23:22:14.497Z,2.63
2023-03-16T23:25:16.132Z,2.42
2023-03-16T23:28:23.110Z,2.05
2023-03-16T23:31:27.212Z,2.85
2023-03-16T23:37:30.784Z,2.55
2023-03-16T23:40:36.551Z,2.58
2023-03-16T23:43:39.911Z,2.42
2023-03-16T23:46:42.083Z,2.77
2023-03-16T23:49:43.685Z,2.72
2023-03-16T23:52:45.426Z,2.30
2023-03-16T23:55:48.005Z,2.40
2023-03-16T23:58:50.072Z,2.83
